createdAt,value
2022-11-27T00:01:27.103Z,5.9
2022-11-27T00:03:28.427Z,6.1
2022-11-27T00:05:29.457Z,5.3
2022-11-27T00:07:51.762Z,8.4
2022-11-27T00:09:52.957Z,6.4
2022-11-27T00:13:58.633Z,6.9
2022-11-27T00:18:01.013Z,8.8
2022-11-27T00:20:02.260Z,6.7
2022-11-27T00:24:04.689Z,4.5
2022-11-27T00:28:10.335Z,4.7
2022-11-27T00:30:11.546Z,6.2
2022-11-27T00:32:12.767Z,7.6
2022-11-27T00:34:13.968Z,6.5
2022-11-27T00:36:15.172Z,5
2022-11-27T00:38:16.364Z,5
2022-11-27T00:40:17.593Z,5.4
2022-11-27T00:42:22.037Z,5.6
2022-11-27T00:44:23.251Z,5.9
2022-11-27T00:46:28.041Z,6.1
2022-11-27T00:48:25.709Z,5.4
2022-11-27T00:58:34.983Z,6
2022-11-27T01:00:36.185Z,7.4
2022-11-27T01:05:40.844Z,6.8
2022-11-27T01:07:42.121Z,7.1
2022-11-27T01:11:47.690Z,6.5
2022-11-27T01:13:48.900Z,6.9
2022-11-27T01:15:50.140Z,6.5
2022-11-27T01:17:51.319Z,6.2
2022-11-27T01:19:52.516Z,7.5
2022-11-27T01:21:53.725Z,6.3
2022-11-27T01:23:58.161Z,8
2022-11-27T01:25:59.387Z,8.9
2022-11-27T01:28:00.582Z,6.4
2022-11-27T01:30:01.812Z,7.4
2022-11-27T01:32:03.004Z,6.9
2022-11-27T01:34:04.213Z,7.1
2022-11-27T01:36:05.424Z,9.5
2022-11-27T01:40:11.136Z,7.8
2022-11-27T01:42:12.318Z,7.2
2022-11-27T01:44:13.521Z,7.8
2022-11-27T01:46:14.776Z,6.9
2022-11-27T01:48:15.968Z,8
2022-11-27T01:50:17.134Z,9.3
2022-11-27T01:52:21.617Z,7.6
2022-11-27T01:54:22.792Z,6.6
2022-11-27T01:56:23.993Z,6.3
2022-11-27T02:13:39.099Z,6.5
2022-11-27T02:15:40.335Z,7.7
2022-11-27T02:17:41.570Z,6.7
2022-11-27T02:19:46.020Z,7.3
2022-11-27T02:21:47.213Z,8
2022-11-27T02:23:48.399Z,7.3
2022-11-27T02:25:49.599Z,6.5
2022-11-27T02:27:50.839Z,6.2
2022-11-27T02:29:52.028Z,8.7
2022-11-27T02:31:53.208Z,8.2
2022-11-27T02:33:57.707Z,6.3
2022-11-27T02:35:58.932Z,7.2
2022-11-27T02:38:00.289Z,8.5
2022-11-27T02:40:01.334Z,7.5
2022-11-27T02:42:02.504Z,7.8
2022-11-27T02:44:03.692Z,8
2022-11-27T02:46:04.974Z,7
2022-11-27T02:48:09.527Z,8.6
2022-11-27T02:50:10.557Z,7.7
2022-11-27T02:52:11.773Z,6.5
2022-11-27T02:53:14.014Z,10
2022-11-27T02:55:15.220Z,7.3
2022-11-27T02:57:16.403Z,6.3
2022-11-27T02:59:17.605Z,12.1
2022-11-27T03:01:22.166Z,7.6
2022-11-27T03:03:23.286Z,7.2
2022-11-27T03:05:24.487Z,8
2022-11-27T03:07:25.792Z,7.1
2022-11-27T03:09:26.880Z,5.9
2022-11-27T03:11:28.101Z,6.3
2022-11-27T03:13:29.440Z,7.3
2022-11-27T03:15:33.798Z,6.3
2022-11-27T03:17:35.007Z,6.9
2022-11-27T03:19:36.213Z,5.6
2022-11-27T03:21:37.397Z,6.3
2022-11-27T03:23:38.719Z,5.9
2022-11-27T03:25:39.802Z,5.8
2022-11-27T03:29:45.470Z,6.2
2022-11-27T03:35:49.118Z,5.9
2022-11-27T03:41:52.694Z,8.1
2022-11-27T03:43:57.151Z,5.5
2022-11-27T03:45:58.354Z,6
2022-11-27T03:47:59.601Z,5.2
2022-11-27T03:50:22.310Z,5.2
2022-11-27T03:52:23.504Z,4.7
2022-11-27T03:54:24.704Z,4.9
2022-11-27T03:56:29.157Z,4.9
2022-11-27T03:58:30.326Z,5.3
2022-11-27T04:00:31.523Z,4.9
2022-11-27T04:02:32.730Z,5.2
2022-11-27T04:04:33.933Z,6.6
2022-11-27T04:06:35.137Z,5.4
2022-11-27T04:08:36.344Z,5
2022-11-27T04:10:40.797Z,4.8
2022-11-27T04:14:43.167Z,4.1
2022-11-27T04:16:44.490Z,5.6
2022-11-27T04:18:45.592Z,5.3
2022-11-27T04:20:46.829Z,5.1
2022-11-27T04:24:52.517Z,4.8
2022-11-27T04:26:53.753Z,4.6
2022-11-27T04:28:54.941Z,4.8
2022-11-27T04:30:56.189Z,4.9
2022-11-27T04:32:57.358Z,4.5
2022-11-27T04:34:58.694Z,3.8
2022-11-27T04:39:04.233Z,4.7
2022-11-27T04:41:05.420Z,5.5
2022-11-27T04:44:08.840Z,8.3
2022-11-27T04:46:10.111Z,4.5
2022-11-27T04:48:11.250Z,4.3
2022-11-27T04:50:12.667Z,8
2022-11-27T04:52:16.917Z,5.1
2022-11-27T04:54:18.128Z,3.4
2022-11-27T04:56:19.316Z,4.6
2022-11-27T04:58:20.540Z,4.3
2022-11-27T05:00:21.714Z,5.6
2022-11-27T05:02:22.980Z,4.1
2022-11-27T05:04:24.106Z,4
2022-11-27T05:06:28.562Z,4.6
2022-11-27T05:12:32.158Z,3.8
2022-11-27T05:16:34.659Z,4.3
2022-11-27T05:18:35.800Z,4.6
2022-11-27T05:20:40.268Z,4.6
2022-11-27T05:22:41.475Z,4.4
2022-11-27T05:24:42.893Z,4
2022-11-27T05:26:43.918Z,3.5
2022-11-27T05:28:45.124Z,3.8
2022-11-27T05:30:46.313Z,4.3
2022-11-27T05:32:47.537Z,4.3
2022-11-27T05:34:52.044Z,3.8
2022-11-27T05:36:53.220Z,3.6
2022-11-27T05:38:54.430Z,3.9
2022-11-27T05:39:56.655Z,4
2022-11-27T05:41:58.022Z,4
2022-11-27T05:43:59.091Z,4.5
2022-11-27T05:46:00.326Z,5.6
2022-11-27T05:48:04.745Z,3.8
2022-11-27T05:50:07.487Z,4.4
2022-11-27T05:52:08.662Z,3.7
2022-11-27T05:56:11.058Z,4.4
2022-11-27T05:58:12.239Z,3.6
2022-11-27T06:00:13.446Z,5.3
2022-11-27T06:02:22.526Z,4.2
2022-11-27T06:08:21.541Z,4.8
2022-11-27T06:10:22.728Z,4.3
2022-11-27T06:12:23.955Z,5.9
2022-11-27T06:14:25.156Z,3.8
2022-11-27T06:16:29.709Z,4.5
2022-11-27T06:18:30.839Z,3.6
2022-11-27T06:22:33.232Z,4.6
2022-11-27T06:24:34.411Z,4.2
2022-11-27T06:26:35.641Z,4.1
2022-11-27T06:28:36.839Z,4.3
2022-11-27T06:30:41.334Z,4.6
2022-11-27T06:32:42.549Z,7.6
2022-11-27T06:34:43.760Z,5.7
2022-11-27T06:35:46.005Z,4
2022-11-27T06:37:47.216Z,3.3
2022-11-27T06:39:48.425Z,5.9
2022-11-27T06:41:49.628Z,6.1
2022-11-27T06:43:54.130Z,5.1
2022-11-27T06:45:55.428Z,4
2022-11-27T06:47:56.573Z,4.1
2022-11-27T06:49:57.816Z,4.4
2022-11-27T06:51:59.014Z,5.1
2022-11-27T06:54:00.211Z,4.6
2022-11-27T06:56:01.446Z,4.3
2022-11-27T06:58:05.953Z,4
2022-11-27T07:00:07.167Z,5
2022-11-27T07:02:08.466Z,5.1
2022-11-27T07:04:09.623Z,4.6
2022-11-27T07:06:10.861Z,5
2022-11-27T07:08:12.121Z,4.1
2022-11-27T07:10:13.331Z,3.4
2022-11-27T07:12:17.779Z,4.6
2022-11-27T07:14:18.995Z,5.6
2022-11-27T07:16:20.247Z,5.4
2022-11-27T07:18:21.432Z,4.6
2022-11-27T07:20:22.643Z,5.6
2022-11-27T07:22:23.870Z,4.7
2022-11-27T07:24:25.096Z,6.3
2022-11-27T07:26:29.538Z,4.3
2022-11-27T07:28:30.734Z,4.9
2022-11-27T07:30:31.960Z,4.5
2022-11-27T07:33:00.400Z,4.4
2022-11-27T07:35:01.643Z,4.7
2022-11-27T07:37:02.861Z,4.9
2022-11-27T07:39:07.428Z,4.1
2022-11-27T07:41:08.585Z,6.3
2022-11-27T07:43:09.805Z,5.8
2022-11-27T07:45:11.035Z,5.9
2022-11-27T07:47:12.292Z,4.9
2022-11-27T07:49:13.534Z,5.1
2022-11-27T07:51:14.734Z,5.6
2022-11-27T07:53:19.191Z,6.2
2022-11-27T07:55:20.400Z,4.8
2022-11-27T07:57:21.629Z,5.6
2022-11-27T07:59:23.020Z,4.8
2022-11-27T08:01:24.128Z,6.2
2022-11-27T08:03:25.271Z,7
2022-11-27T08:11:33.413Z,5.8
2022-11-27T08:13:34.607Z,6.6
2022-11-27T08:15:35.814Z,7.1
2022-11-27T08:17:37.013Z,7.7
2022-11-27T08:19:38.391Z,7.2
2022-11-27T08:21:42.734Z,7.9
2022-11-27T08:23:43.971Z,7
2022-11-27T08:25:45.159Z,7.5
2022-11-27T08:26:47.395Z,8.6
2022-11-27T08:28:48.592Z,8.5
2022-11-27T08:30:49.823Z,5.5
2022-11-27T08:32:51.068Z,7.4
2022-11-27T08:34:55.522Z,8.4
2022-11-27T08:36:56.725Z,7.3
2022-11-27T08:38:57.906Z,8.8
2022-11-27T08:40:59.111Z,6.4
2022-11-27T08:43:00.325Z,7.1
2022-11-27T08:47:02.752Z,8.8
2022-11-27T08:49:07.203Z,9.3
2022-11-27T08:51:08.408Z,7.2
2022-11-27T08:53:09.612Z,7.1
2022-11-27T08:55:10.803Z,7.4
2022-11-27T08:57:12.045Z,7
2022-11-27T09:03:18.893Z,10.2
2022-11-27T09:05:20.115Z,7.9
2022-11-27T09:07:21.435Z,8.6
2022-11-27T09:09:22.517Z,6.5
2022-11-27T09:11:23.739Z,8.2
2022-11-27T09:13:24.927Z,10.1
2022-11-27T09:15:26.159Z,7.6
2022-11-27T09:17:30.624Z,9.3
2022-11-27T09:21:33.044Z,8.4
2022-11-27T09:26:37.696Z,8.6
2022-11-27T09:28:38.908Z,8.2
2022-11-27T09:30:43.368Z,11.2
2022-11-27T09:32:44.556Z,9.1
2022-11-27T09:34:45.829Z,12.3
2022-11-27T09:36:46.971Z,12.1
2022-11-27T09:38:48.216Z,9.4
2022-11-27T09:40:49.418Z,9.6
2022-11-27T09:42:50.633Z,9
2022-11-27T09:44:55.119Z,11.5
2022-11-27T09:46:56.310Z,8.1
2022-11-27T09:48:57.529Z,9.4
2022-11-27T09:50:58.772Z,11.4
2022-11-27T09:52:59.962Z,10.1
2022-11-27T09:55:01.163Z,14.7
2022-11-27T09:57:02.388Z,10.7
2022-11-27T09:59:06.857Z,11.8
2022-11-27T10:01:08.116Z,12.8
2022-11-27T10:03:09.366Z,11.7
2022-11-27T10:05:14.569Z,10.6
2022-11-27T10:09:12.906Z,16.8
2022-11-27T10:11:14.101Z,15.1
2022-11-27T10:15:19.967Z,9.5
2022-11-27T10:17:21.013Z,10.2
2022-11-27T10:18:23.267Z,23.5
2022-11-27T10:20:24.478Z,12.5
2022-11-27T10:22:25.731Z,14.4
2022-11-27T10:24:26.906Z,13.2
2022-11-27T10:26:31.384Z,10.8
2022-11-27T10:28:32.605Z,16.4
2022-11-27T10:30:33.840Z,11.8
2022-11-27T10:32:54.530Z,12.9
2022-11-27T10:34:36.229Z,13
2022-11-27T10:40:43.184Z,9.5
2022-11-27T10:42:44.375Z,13.3
2022-11-27T10:44:45.616Z,10.1
2022-11-27T10:52:52.469Z,10.9
2022-11-27T10:54:54.933Z,13.7
2022-11-27T10:56:56.148Z,12
2022-11-27T10:58:57.353Z,8.3
2022-11-27T11:00:58.632Z,9.9
2022-11-27T11:02:59.774Z,9.4
2022-11-27T11:05:30.799Z,9.5
2022-11-27T11:07:02.185Z,7.9
2022-11-27T11:09:06.640Z,9.4
2022-11-27T11:11:07.868Z,10.4
2022-11-27T11:13:09.123Z,8.6
2022-11-27T11:15:37.495Z,10.6
2022-11-27T11:17:38.735Z,9.7
2022-11-27T11:21:44.436Z,8.8
2022-11-27T11:27:48.100Z,10.5
2022-11-27T11:33:51.761Z,8.6
2022-11-27T11:35:56.218Z,8.6
2022-11-27T11:37:57.478Z,8.7
2022-11-27T11:40:00.240Z,12.2
2022-11-27T11:42:01.406Z,8.9
2022-11-27T11:44:02.608Z,9
2022-11-27T11:46:03.869Z,8.5
2022-11-27T11:48:05.056Z,6.8
2022-11-27T11:50:09.561Z,9
2022-11-27T11:54:12.025Z,8.5
2022-11-27T11:56:13.235Z,7.3
2022-11-27T11:58:14.417Z,9.9
2022-11-27T12:00:15.805Z,7.3
2022-11-27T12:02:16.933Z,9.7
2022-11-27T12:04:21.464Z,9.7
2022-11-27T12:06:22.623Z,7.8
2022-11-27T12:08:23.825Z,9.9
2022-11-27T12:09:26.074Z,9.4
2022-11-27T12:11:27.287Z,8.9
2022-11-27T12:13:33.022Z,9.1
2022-11-27T12:15:29.745Z,10.2
2022-11-27T12:17:34.201Z,9.1
2022-11-27T12:19:35.424Z,7.9
2022-11-27T12:23:37.852Z,8.6
2022-11-27T12:25:39.080Z,8.7
2022-11-27T12:27:40.373Z,7.7
2022-11-27T12:29:41.519Z,8.1
2022-11-27T12:33:47.229Z,9.2
2022-11-27T12:35:48.441Z,8.1
2022-11-27T12:39:50.882Z,9.5
2022-11-27T12:43:53.336Z,8.7
2022-11-27T12:47:59.038Z,8
2022-11-27T12:50:00.254Z,7.7
2022-11-27T12:52:01.545Z,8.1
2022-11-27T12:54:02.731Z,7.6
2022-11-27T12:56:03.953Z,7.5
2022-11-27T12:58:05.142Z,8.9
2022-11-27T13:00:09.606Z,9.6
2022-11-27T13:04:12.046Z,7.8
2022-11-27T13:05:14.302Z,9.2
2022-11-27T13:07:15.577Z,6.7
2022-11-27T13:09:16.781Z,8.8
2022-11-27T13:11:17.975Z,6.7
2022-11-27T13:13:22.457Z,8.5
2022-11-27T13:15:23.677Z,7.6
2022-11-27T13:17:24.883Z,7.3
2022-11-27T13:19:26.121Z,7.1
2022-11-27T13:21:27.352Z,7.3
2022-11-27T13:23:28.576Z,7.9
2022-11-27T13:25:29.809Z,8.7
2022-11-27T13:27:34.260Z,7.5
2022-11-27T13:29:35.485Z,7.4
2022-11-27T13:31:36.799Z,7.6
2022-11-27T13:33:37.961Z,6.2
2022-11-27T13:35:39.170Z,7.1
2022-11-27T13:37:40.376Z,7.1
2022-11-27T13:41:46.109Z,9
2022-11-27T13:43:47.376Z,7.8
2022-11-27T13:45:48.698Z,8.3
2022-11-27T13:47:49.764Z,7
2022-11-27T13:49:50.993Z,6.9
2022-11-27T13:53:53.425Z,7.3
2022-11-27T14:00:00.377Z,9.2
2022-11-27T14:01:02.699Z,9
2022-11-27T14:03:03.837Z,8.5
2022-11-27T14:05:05.083Z,8.1
2022-11-27T14:13:13.201Z,8.7
2022-11-27T14:15:14.442Z,10.1
2022-11-27T14:17:15.658Z,7.3
2022-11-27T14:19:16.868Z,7.7
2022-11-27T14:21:18.074Z,7.9
2022-11-27T14:23:22.552Z,7.9
2022-11-27T14:25:23.810Z,9.8
2022-11-27T14:27:25.066Z,10.9
2022-11-27T14:29:26.255Z,8.1
2022-11-27T14:31:27.633Z,7.5
2022-11-27T14:33:28.712Z,6.9
2022-11-27T14:35:29.907Z,6.9
2022-11-27T14:37:34.402Z,9
2022-11-27T14:39:35.624Z,7.1
2022-11-27T14:41:36.837Z,9.3
2022-11-27T14:43:38.058Z,8.8
2022-11-27T14:47:40.499Z,15.8
2022-11-27T14:49:41.930Z,9.1
2022-11-27T14:51:46.181Z,8.4
2022-11-27T14:53:47.392Z,8.1
2022-11-27T14:55:48.609Z,7.4
2022-11-27T15:00:18.200Z,7.5
2022-11-27T15:02:21.453Z,7.8
2022-11-27T15:04:23.889Z,9.6
2022-11-27T15:06:25.097Z,8
2022-11-27T15:08:26.363Z,8.1
2022-11-27T15:10:27.567Z,7.7
2022-11-27T15:12:28.781Z,8
2022-11-27T15:16:31.248Z,7.9
2022-11-27T15:18:35.666Z,9.5
2022-11-27T15:20:36.898Z,12
2022-11-27T15:22:38.111Z,10.3
2022-11-27T15:24:39.362Z,7.2
2022-11-27T15:26:40.550Z,7.3
2022-11-27T15:28:41.777Z,7.3
2022-11-27T15:30:43.076Z,8.7
2022-11-27T15:32:47.467Z,7.4
2022-11-27T15:34:48.727Z,9
2022-11-27T15:36:49.943Z,7.4
2022-11-27T15:38:51.126Z,9
2022-11-27T15:40:52.339Z,8.7
2022-11-27T15:42:53.572Z,8.7
2022-11-27T15:44:54.788Z,8.1
2022-11-27T15:46:59.266Z,9.1
2022-11-27T15:49:00.500Z,7.5
2022-11-27T15:51:01.693Z,7.2
2022-11-27T15:54:05.152Z,8.6
2022-11-27T15:56:06.378Z,7.5
2022-11-27T16:02:17.832Z,9.1
2022-11-27T16:04:14.528Z,10.1
2022-11-27T16:06:15.735Z,6.1
2022-11-27T16:08:16.977Z,7.1
2022-11-27T16:10:18.193Z,8.3
2022-11-27T16:12:19.408Z,7.6
2022-11-27T16:14:23.895Z,9.2
2022-11-27T16:16:25.164Z,9.2
2022-11-27T16:18:26.325Z,7.9
2022-11-27T16:20:27.549Z,9.1
2022-11-27T16:26:31.214Z,8.3
2022-11-27T16:30:36.886Z,8.5
2022-11-27T16:36:40.564Z,9.6
2022-11-27T16:38:41.800Z,7.6
2022-11-27T16:40:43.007Z,8.3
2022-11-27T16:42:47.513Z,8.8
2022-11-27T16:44:48.693Z,7.1
2022-11-27T16:46:49.951Z,7.9
2022-11-27T16:47:52.226Z,10.5
2022-11-27T16:49:53.464Z,12.3
2022-11-27T16:51:54.697Z,7.1
2022-11-27T16:53:55.931Z,9.2
2022-11-27T16:56:00.403Z,10.7
2022-11-27T16:58:01.617Z,11.8
2022-11-27T17:00:02.859Z,11.2
2022-11-27T17:02:04.144Z,8.9
2022-11-27T17:04:05.295Z,7.5
2022-11-27T17:06:06.589Z,9.7
2022-11-27T17:08:07.734Z,11.2
2022-11-27T17:10:12.228Z,10
2022-11-27T17:12:13.462Z,11.1
2022-11-27T17:14:14.681Z,16.9
2022-11-27T17:16:15.977Z,8.7
2022-11-27T17:18:17.130Z,8.7
2022-11-27T17:20:18.342Z,8.2
2022-11-27T17:22:19.564Z,7.5
2022-11-27T17:24:24.037Z,9.2
2022-11-27T17:26:25.293Z,7.6
2022-11-27T17:28:26.509Z,7.6
2022-11-27T17:30:29.277Z,7
2022-11-27T17:32:30.457Z,9.3
2022-11-27T17:34:31.686Z,6.5
2022-11-27T17:38:37.400Z,8.3
2022-11-27T17:40:38.630Z,7.5
2022-11-27T17:42:39.834Z,10.5
2022-11-27T17:43:42.086Z,8.7
2022-11-27T17:47:44.517Z,8.4
2022-11-27T17:49:45.743Z,9.4
2022-11-27T17:57:53.875Z,9
2022-11-27T17:59:55.098Z,8.5
2022-11-27T18:01:56.386Z,7.3
2022-11-27T18:10:04.536Z,6.9
2022-11-27T18:12:05.711Z,6.7
2022-11-27T18:14:06.919Z,6.6
2022-11-27T18:16:08.248Z,6.8
2022-11-27T18:18:09.389Z,7
2022-11-27T18:20:13.855Z,7.7
2022-11-27T18:22:15.078Z,7.4
2022-11-27T18:24:24.855Z,5.9
2022-11-27T18:26:17.543Z,7
2022-11-27T18:28:18.766Z,7.4
2022-11-27T18:30:19.993Z,7.9
2022-11-27T18:32:21.265Z,8
2022-11-27T18:36:26.896Z,10.3
2022-11-27T18:40:56.614Z,9.2
2022-11-27T18:42:57.740Z,8.1
2022-11-27T18:44:58.973Z,7.2
2022-11-27T18:47:03.460Z,7.9
2022-11-27T18:49:04.673Z,8.2
2022-11-27T18:51:05.880Z,8.3
2022-11-27T18:53:07.084Z,7.5
2022-11-27T18:55:08.343Z,7.4
2022-11-27T18:57:09.558Z,6.9
2022-11-27T18:59:10.763Z,8.4
2022-11-27T19:01:15.328Z,7.4
2022-11-27T19:03:16.450Z,7.4
2022-11-27T19:05:17.688Z,7.4
2022-11-27T19:07:18.982Z,7.2
2022-11-27T19:09:20.129Z,6.7
2022-11-27T19:11:21.355Z,6.6
2022-11-27T19:15:27.027Z,8.5
2022-11-27T19:17:32.174Z,7.1
2022-11-27T19:19:54.641Z,7.2
2022-11-27T19:21:30.691Z,6.9
2022-11-27T19:23:36.452Z,8.7
2022-11-27T19:25:33.099Z,7.5
2022-11-27T19:27:34.321Z,10.9
2022-11-27T19:29:38.855Z,12.1
2022-11-27T19:31:40.071Z,9
2022-11-27T19:33:41.262Z,11.9
2022-11-27T19:34:43.774Z,10
2022-11-27T19:36:44.702Z,9.3
2022-11-27T19:38:45.924Z,8.6
2022-11-27T19:40:47.128Z,7.8
2022-11-27T19:42:53.657Z,7.9
2022-11-27T19:44:52.824Z,7.7
2022-11-27T19:46:54.040Z,8.3
2022-11-27T19:48:55.262Z,7.5
2022-11-27T19:50:56.523Z,9.2
2022-11-27T19:52:57.695Z,11.3
2022-11-27T19:54:58.916Z,7.9
2022-11-27T19:57:03.395Z,7.3
2022-11-27T19:59:04.618Z,7.9
2022-11-27T20:01:05.964Z,7.2
2022-11-27T20:03:07.055Z,7.8
2022-11-27T20:05:08.265Z,9
2022-11-27T20:07:09.504Z,10.6
2022-11-27T20:09:10.695Z,10
2022-11-27T20:11:15.169Z,8.5
2022-11-27T20:13:16.391Z,8.5
2022-11-27T20:15:17.639Z,8.3
2022-11-27T20:17:18.855Z,7.5
2022-11-27T20:19:20.083Z,9.2
2022-11-27T20:21:21.274Z,8.8
2022-11-27T20:23:22.486Z,9.1
2022-11-27T20:25:27.004Z,11
2022-11-27T20:27:28.218Z,9.2
2022-11-27T20:29:29.448Z,8.9
2022-11-27T20:30:31.669Z,9.9
2022-11-27T20:32:32.889Z,8.7
2022-11-27T20:34:34.103Z,8.8
2022-11-27T20:36:35.311Z,8.9
2022-11-27T20:38:39.806Z,9.2
2022-11-27T20:40:41.025Z,11.4
2022-11-27T20:42:42.224Z,9.1
2022-11-27T20:44:43.423Z,7.9
2022-11-27T20:46:44.648Z,8.4
2022-11-27T20:48:45.840Z,9.9
2022-11-27T20:50:51.034Z,9.2
2022-11-27T20:52:51.557Z,9.9
2022-11-27T20:54:52.763Z,8.2
2022-11-27T20:56:54.007Z,9.1
2022-11-27T20:58:55.196Z,8.1
2022-11-27T21:00:56.500Z,9.8
2022-11-27T21:02:57.604Z,9.7
2022-11-27T21:04:58.865Z,8.3
2022-11-27T21:07:03.321Z,11.2
2022-11-27T21:09:04.545Z,8.4
2022-11-27T21:11:05.757Z,8.1
2022-11-27T21:13:06.986Z,9.7
2022-11-27T21:15:08.203Z,8.4
2022-11-27T21:17:09.448Z,9.1
2022-11-27T21:19:10.637Z,8.3
2022-11-27T21:26:19.778Z,9.6
2022-11-27T21:28:21.041Z,8.8
2022-11-27T21:30:22.256Z,9.1
2022-11-27T21:32:23.502Z,9.7
2022-11-27T21:34:27.907Z,9.3
2022-11-27T21:36:29.139Z,9.6
2022-11-27T21:38:30.364Z,11.2
2022-11-27T21:40:31.612Z,8.5
2022-11-27T21:42:32.828Z,9.2
2022-11-27T21:46:35.687Z,8.2
2022-11-27T21:48:40.131Z,11.3
2022-11-27T21:52:42.612Z,9.5
2022-11-27T22:02:52.058Z,10
2022-11-27T22:12:58.042Z,9
2022-11-27T22:14:59.263Z,10.9
2022-11-27T22:17:03.785Z,11.4
2022-11-27T22:19:04.959Z,9
2022-11-27T22:21:06.219Z,11.3
2022-11-27T22:23:34.636Z,11.1
2022-11-27T22:25:35.840Z,9.8
2022-11-27T22:27:37.046Z,9.8
2022-11-27T22:35:45.171Z,9.4
2022-11-27T22:37:46.379Z,9.5
2022-11-27T22:39:47.610Z,8.9
2022-11-27T22:41:48.811Z,10.1
2022-11-27T22:43:53.302Z,10.8
2022-11-27T22:45:54.597Z,9.7
2022-11-27T22:47:55.738Z,8.7
2022-11-27T22:49:56.978Z,10.2
2022-11-27T22:51:58.190Z,8.8
2022-11-27T22:53:59.404Z,9.7
2022-11-27T22:56:00.613Z,8
2022-11-27T22:58:05.087Z,9
2022-11-27T23:00:06.340Z,10.4
2022-11-27T23:02:07.580Z,10.4
2022-11-27T23:04:08.721Z,8.7
2022-11-27T23:06:09.921Z,9.7
2022-11-27T23:08:11.226Z,9.5
2022-11-27T23:12:16.840Z,9.3
2022-11-27T23:14:18.094Z,8.6
2022-11-27T23:16:19.317Z,9.7
2022-11-27T23:17:21.497Z,9.6
2022-11-27T23:21:25.433Z,9
2022-11-27T23:23:26.659Z,10.5
2022-11-27T23:25:31.144Z,8.9
2022-11-27T23:27:32.367Z,10.1
2022-11-27T23:29:33.561Z,8.1
2022-11-27T23:31:34.883Z,8.9
2022-11-27T23:33:35.987Z,8.2
2022-11-27T23:35:37.215Z,11.5
2022-11-27T23:37:38.421Z,8.9
2022-11-27T23:39:42.912Z,10.2
2022-11-27T23:43:45.319Z,8.9
2022-11-27T23:45:46.625Z,9
2022-11-27T23:47:47.795Z,9.5
2022-11-27T23:49:49.026Z,8
2022-11-27T23:51:50.219Z,7.1
2022-11-27T23:53:54.670Z,8.6
2022-11-27T23:55:55.907Z,8.1
2022-11-27T23:57:57.098Z,8.7
2022-11-27T23:59:58.338Z,6.8
